createdAt,value
2022-08-11T00:01:17.510Z,1.70
2022-08-11T00:03:49.275Z,1.50
2022-08-11T00:06:26.249Z,1.57
2022-08-11T00:08:57.295Z,2.53
2022-08-11T00:11:35.871Z,2.03
2022-08-11T00:14:06.169Z,4.43
2022-08-11T00:16:35.461Z,1.63
2022-08-11T00:19:04.769Z,2.93
2022-08-11T00:22:04.989Z,4.23
2022-08-11T00:24:53.699Z,2.83
2022-08-11T00:27:33.781Z,3.83
2022-08-11T00:30:02.940Z,1.90
2022-08-11T00:32:32.737Z,1.93
2022-08-11T00:35:51.126Z,2.00
2022-08-11T00:37:55.207Z,3.23
2022-08-11T00:40:34.944Z,3.63
2022-08-11T00:43:19.957Z,4.03
2022-08-11T00:46:12.070Z,2.33
2022-08-11T00:48:51.732Z,2.30
2022-08-11T00:52:04.480Z,4.20
2022-08-11T00:54:46.109Z,2.57
2022-08-11T00:57:37.308Z,2.83
2022-08-11T01:00:18.340Z,2.20
2022-08-11T01:03:18.860Z,4.27
2022-08-11T01:06:07.922Z,4.93
2022-08-11T01:09:17.921Z,4.10
2022-08-11T01:12:16.176Z,2.27
2022-08-11T01:15:22.040Z,2.70
2022-08-11T01:18:29.394Z,1.73
2022-08-11T01:21:33.963Z,4.83
2022-08-11T01:24:36.556Z,3.17
2022-08-11T01:27:26.170Z,3.67
2022-08-11T01:30:34.132Z,1.77
2022-08-11T01:33:39.276Z,2.07
2022-08-11T01:36:56.575Z,3.03
2022-08-11T01:39:55.159Z,4.33
2022-08-11T01:43:17.029Z,2.37
2022-08-11T01:45:54.300Z,2.10
2022-08-11T01:48:35.702Z,1.93
2022-08-11T01:51:17.488Z,1.40
2022-08-11T01:54:06.922Z,1.40
2022-08-11T01:57:04.919Z,3.23
2022-08-11T01:59:38.931Z,1.60
2022-08-11T02:02:44.405Z,4.40
2022-08-11T02:05:24.636Z,3.20
2022-08-11T02:08:04.459Z,2.10
2022-08-11T02:11:01.972Z,2.03
2022-08-11T02:13:46.730Z,3.17
2022-08-11T02:16:27.044Z,2.00
2022-08-11T02:19:23.381Z,1.50
2022-08-11T02:22:18.463Z,2.23
2022-08-11T02:24:59.765Z,2.23
2022-08-11T02:27:42.308Z,1.67
2022-08-11T02:30:14.677Z,1.00
2022-08-11T02:33:08.719Z,1.50
2022-08-11T02:35:45.917Z,1.63
2022-08-11T02:38:24.854Z,1.83
2022-08-11T02:41:03.015Z,1.60
2022-08-11T02:43:51.133Z,3.40
2022-08-11T02:46:24.847Z,2.60
2022-08-11T02:49:23.740Z,4.30
2022-08-11T02:52:09.828Z,11.60
2022-08-11T02:54:46.267Z,3.23
2022-08-11T02:57:22.464Z,2.60
2022-08-11T02:59:58.331Z,2.90
2022-08-11T03:02:54.449Z,5.10
2022-08-11T03:05:35.136Z,1.40
2022-08-11T03:08:25.377Z,2.60
2022-08-11T03:11:20.489Z,5.10
2022-08-11T03:14:18.099Z,1.43
2022-08-11T03:16:56.426Z,1.70
2022-08-11T03:19:33.189Z,3.07
2022-08-11T03:22:09.874Z,2.03
2022-08-11T03:24:52.772Z,1.67
2022-08-11T03:27:34.595Z,2.37
2022-08-11T03:30:13.871Z,1.73
2022-08-11T03:33:19.618Z,2.23
2022-08-11T03:36:02.966Z,1.70
2022-08-11T03:38:45.420Z,2.63
2022-08-11T03:42:03.543Z,3.27
2022-08-11T03:44:57.911Z,2.37
2022-08-11T03:47:40.141Z,4.33
2022-08-11T03:50:33.957Z,1.67
2022-08-11T03:53:16.644Z,2.10
2022-08-11T03:56:13.551Z,2.13
2022-08-11T03:59:12.366Z,5.63
2022-08-11T04:02:10.587Z,2.20
2022-08-11T04:05:15.766Z,1.80
2022-08-11T04:08:18.951Z,2.80
2022-08-11T04:11:20.180Z,2.20
2022-08-11T04:14:48.765Z,5.10
2022-08-11T04:17:49.040Z,2.83
2022-08-11T04:20:53.295Z,1.70
2022-08-11T04:24:33.401Z,1.87
2022-08-11T04:27:02.061Z,1.93
2022-08-11T04:30:03.650Z,1.27
2022-08-11T04:32:58.281Z,2.20
2022-08-11T04:35:48.645Z,3.30
2022-08-11T04:38:46.862Z,1.90
2022-08-11T04:42:02.665Z,2.37
2022-08-11T04:45:02.830Z,3.20
2022-08-11T04:48:08.888Z,2.17
2022-08-11T04:51:16.917Z,1.40
2022-08-11T04:54:19.714Z,1.80
2022-08-11T04:57:09.895Z,1.60
2022-08-11T05:00:19.452Z,3.70
2022-08-11T05:03:25.007Z,2.17
2022-08-11T05:06:25.012Z,2.23
2022-08-11T05:09:19.172Z,2.00
2022-08-11T05:12:20.338Z,1.70
2022-08-11T05:15:10.141Z,3.73
2022-08-11T05:18:14.382Z,2.23
2022-08-11T05:21:07.645Z,3.00
2022-08-11T05:23:58.643Z,2.80
2022-08-11T05:26:49.678Z,1.77
2022-08-11T05:29:58.108Z,3.70
2022-08-11T05:32:48.941Z,2.60
2022-08-11T05:36:02.617Z,1.80
2022-08-11T05:38:37.633Z,2.17
2022-08-11T05:41:25.437Z,1.50
2022-08-11T05:44:20.711Z,2.35
2022-08-11T05:47:09.480Z,3.03
2022-08-11T05:49:57.851Z,1.70
2022-08-11T05:52:47.126Z,1.70
2022-08-11T05:55:35.877Z,3.28
2022-08-11T05:58:23.823Z,2.15
2022-08-11T06:00:55.027Z,2.10
2022-08-11T06:03:29.305Z,2.95
2022-08-11T06:05:59.376Z,5.45
2022-08-11T06:08:36.407Z,2.38
2022-08-11T06:11:07.151Z,2.10
2022-08-11T06:13:36.765Z,2.20
2022-08-11T06:16:07.512Z,2.28
2022-08-11T06:18:37.705Z,9.55
2022-08-11T06:21:11.485Z,1.88
2022-08-11T06:23:40.870Z,1.75
2022-08-11T06:26:11.384Z,2.22
2022-08-11T06:28:41.585Z,3.28
2022-08-11T06:31:16.631Z,2.28
2022-08-11T06:34:01.373Z,4.07
2022-08-11T06:36:36.288Z,1.52
2022-08-11T06:39:17.602Z,3.08
2022-08-11T06:41:50.978Z,2.15
2022-08-11T06:44:29.122Z,2.60
2022-08-11T06:47:08.985Z,1.50
2022-08-11T06:50:06.868Z,3.33
2022-08-11T06:52:37.107Z,1.92
2022-08-11T06:55:55.706Z,2.17
2022-08-11T06:58:17.132Z,2.22
2022-08-11T07:00:48.987Z,2.65
2022-08-11T07:03:22.565Z,1.92
2022-08-11T07:05:57.126Z,3.58
2022-08-11T07:09:05.356Z,1.58
2022-08-11T07:12:33.737Z,1.40
2022-08-11T07:15:23.751Z,1.75
2022-08-11T07:18:08.983Z,1.77
2022-08-11T07:22:00.319Z,2.25
2022-08-11T07:25:01.806Z,3.22
2022-08-11T07:27:50.390Z,1.05
2022-08-11T07:30:19.710Z,2.83
2022-08-11T07:32:53.423Z,2.60
2022-08-11T07:35:26.122Z,1.20
2022-08-11T07:38:01.771Z,1.50
2022-08-11T07:40:32.838Z,1.48
2022-08-11T07:43:02.907Z,2.70
2022-08-11T07:45:50.572Z,1.33
2022-08-11T07:48:38.268Z,2.78
2022-08-11T07:51:25.133Z,1.30
2022-08-11T07:53:58.672Z,1.30
2022-08-11T07:56:54.413Z,2.08
2022-08-11T08:00:00.229Z,2.70
2022-08-11T08:02:59.538Z,2.42
2022-08-11T08:05:46.559Z,4.38
2022-08-11T08:08:35.112Z,1.42
2022-08-11T08:11:27.558Z,3.63
2022-08-11T08:14:15.567Z,2.15
2022-08-11T08:17:03.913Z,2.22
2022-08-11T08:19:34.282Z,3.42
2022-08-11T08:22:34.647Z,2.72
2022-08-11T08:24:55.586Z,8.55
2022-08-11T08:27:28.324Z,2.05
2022-08-11T08:30:18.371Z,3.88
2022-08-11T08:32:48.531Z,8.18
2022-08-11T08:35:18.631Z,2.90
2022-08-11T08:37:54.986Z,2.83
2022-08-11T08:40:28.852Z,6.35
2022-08-11T08:43:07.499Z,2.92
2022-08-11T08:45:41.697Z,4.13
2022-08-11T08:48:14.495Z,2.15
2022-08-11T08:51:08.053Z,2.92
2022-08-11T08:53:52.649Z,1.30
2022-08-11T08:56:30.001Z,1.40
2022-08-11T08:59:03.590Z,3.05
2022-08-11T09:01:40.884Z,2.42
2022-08-11T09:04:13.504Z,2.92
2022-08-11T09:06:48.800Z,3.33
2022-08-11T09:09:24.131Z,2.55
2022-08-11T09:11:57.606Z,4.10
2022-08-11T09:14:47.948Z,2.45
2022-08-11T09:17:19.107Z,5.05
2022-08-11T09:19:54.101Z,6.30
2022-08-11T09:22:43.968Z,1.40
2022-08-11T09:25:31.046Z,1.80
2022-08-11T09:28:00.818Z,1.40
2022-08-11T09:30:31.166Z,1.90
2022-08-11T09:33:02.651Z,2.67
2022-08-11T09:35:33.144Z,2.13
2022-08-11T09:38:20.226Z,1.80
2022-08-11T09:40:56.186Z,1.92
2022-08-11T09:43:44.757Z,1.38
2022-08-11T09:46:17.383Z,2.67
2022-08-11T09:48:47.948Z,5.10
2022-08-11T09:51:18.688Z,3.28
2022-08-11T09:54:02.956Z,1.48
2022-08-11T09:56:51.741Z,2.38
2022-08-11T09:59:22.647Z,3.78
2022-08-11T10:01:59.449Z,2.20
2022-08-11T10:04:35.064Z,1.73
2022-08-11T10:07:07.213Z,1.58
2022-08-11T10:09:40.869Z,3.72
2022-08-11T10:12:13.173Z,2.28
2022-08-11T10:15:04.212Z,1.60
2022-08-11T10:17:38.323Z,1.95
2022-08-11T10:20:10.319Z,1.65
2022-08-11T10:22:53.070Z,2.35
2022-08-11T10:25:40.492Z,2.25
2022-08-11T10:28:28.946Z,1.77
2022-08-11T10:31:17.964Z,6.15
2022-08-11T10:34:05.112Z,3.15
2022-08-11T10:36:42.693Z,1.30
2022-08-11T10:39:18.138Z,1.33
2022-08-11T10:42:08.421Z,1.40
2022-08-11T10:44:41.497Z,2.10
2022-08-11T10:47:31.975Z,2.92
2022-08-11T10:50:35.430Z,1.80
2022-08-11T10:53:22.964Z,2.22
2022-08-11T10:56:09.677Z,2.33
2022-08-11T10:58:49.694Z,3.40
2022-08-11T11:01:23.889Z,1.52
2022-08-11T11:03:56.454Z,1.95
2022-08-11T11:06:35.001Z,1.70
2022-08-11T11:09:09.477Z,3.95
2022-08-11T11:11:58.171Z,7.20
2022-08-11T11:14:50.701Z,1.60
2022-08-11T11:17:46.448Z,1.63
2022-08-11T11:20:35.999Z,5.00
2022-08-11T11:23:16.923Z,2.63
2022-08-11T11:26:27.721Z,3.17
2022-08-11T11:29:22.676Z,1.70
2022-08-11T11:32:14.782Z,1.40
2022-08-11T11:35:31.542Z,3.25
2022-08-11T11:38:05.008Z,1.50
2022-08-11T11:40:37.635Z,3.92
2022-08-11T11:43:07.300Z,1.55
2022-08-11T11:45:36.922Z,2.28
2022-08-11T11:48:06.552Z,1.67
2022-08-11T11:50:38.243Z,1.42
2022-08-11T11:53:14.622Z,1.30
2022-08-11T11:55:45.473Z,2.03
2022-08-11T11:58:32.589Z,1.50
2022-08-11T12:01:20.327Z,2.88
2022-08-11T12:04:07.721Z,3.70
2022-08-11T12:06:37.995Z,1.92
2022-08-11T12:09:07.637Z,1.63
2022-08-11T12:12:00.590Z,3.75
2022-08-11T12:14:29.627Z,1.73
2022-08-11T12:17:00.351Z,2.08
2022-08-11T12:19:35.541Z,2.90
2022-08-11T12:22:22.311Z,1.50
2022-08-11T12:25:11.002Z,5.07
2022-08-11T12:27:41.934Z,2.67
2022-08-11T12:30:12.009Z,2.25
2022-08-11T12:32:42.083Z,1.60
2022-08-11T12:35:11.632Z,2.83
2022-08-11T12:37:43.842Z,2.67
2022-08-11T12:40:43.335Z,1.85
2022-08-11T12:43:43.448Z,2.25
2022-08-11T12:46:21.036Z,1.80
2022-08-11T12:49:10.487Z,2.65
2022-08-11T12:52:12.970Z,1.50
2022-08-11T12:54:52.887Z,1.30
2022-08-11T12:57:51.689Z,2.30
2022-08-11T13:00:41.137Z,3.28
2022-08-11T13:03:29.323Z,1.65
2022-08-11T13:05:59.753Z,3.78
2022-08-11T13:08:30.699Z,1.05
2022-08-11T13:11:19.328Z,1.98
2022-08-11T13:13:53.886Z,3.58
2022-08-11T13:16:30.020Z,2.13
2022-08-11T13:19:01.586Z,1.83
2022-08-11T13:21:31.557Z,1.50
2022-08-11T13:24:03.500Z,3.30
2022-08-11T13:26:46.905Z,2.33
2022-08-11T13:29:20.280Z,1.55
2022-08-11T13:31:52.013Z,1.83
2022-08-11T13:34:22.077Z,2.47
2022-08-11T13:36:53.041Z,1.20
2022-08-11T13:39:24.456Z,2.17
2022-08-11T13:41:57.052Z,1.80
2022-08-11T13:44:28.640Z,1.73
2022-08-11T13:47:02.643Z,2.85
2022-08-11T13:49:32.991Z,1.67
2022-08-11T13:52:02.944Z,4.13
2022-08-11T13:54:35.153Z,1.88
2022-08-11T13:57:09.127Z,1.63
2022-08-11T13:59:52.766Z,4.10
2022-08-11T14:02:30.662Z,2.70
2022-08-11T14:05:04.406Z,2.28
2022-08-11T14:07:41.227Z,4.50
2022-08-11T14:10:15.141Z,2.20
2022-08-11T14:13:09.895Z,3.28
2022-08-11T14:15:43.882Z,1.70
2022-08-11T14:18:21.197Z,1.58
2022-08-11T14:21:13.736Z,4.25
2022-08-11T14:23:45.467Z,4.88
2022-08-11T14:26:27.549Z,2.08
2022-08-11T14:29:02.342Z,2.13
2022-08-11T14:31:33.334Z,2.63
2022-08-11T14:34:06.754Z,2.20
2022-08-11T14:36:39.311Z,4.03
2022-08-11T14:39:13.019Z,2.85
2022-08-11T14:42:11.635Z,1.83
2022-08-11T14:45:03.064Z,1.45
2022-08-11T14:47:35.209Z,2.72
2022-08-11T14:50:11.107Z,2.60
2022-08-11T14:52:47.198Z,3.80
2022-08-11T14:55:34.414Z,3.08
2022-08-11T14:58:04.159Z,2.88
2022-08-11T15:00:35.568Z,4.32
2022-08-11T15:03:11.907Z,2.25
2022-08-11T15:05:55.804Z,1.60
2022-08-11T15:08:47.540Z,2.85
2022-08-11T15:11:35.698Z,2.85
2022-08-11T15:14:07.238Z,1.90
2022-08-11T15:16:55.354Z,2.95
2022-08-11T15:19:40.227Z,1.70
2022-08-11T15:22:32.148Z,2.50
2022-08-11T15:25:02.002Z,3.22
2022-08-11T15:27:50.450Z,4.70
2022-08-11T15:30:38.345Z,2.45
2022-08-11T15:33:27.751Z,5.28
2022-08-11T15:36:15.779Z,3.15
2022-08-11T15:38:55.489Z,3.80
2022-08-11T15:41:58.300Z,2.13
2022-08-11T15:45:03.641Z,1.77
2022-08-11T15:47:41.789Z,2.25
2022-08-11T15:50:16.408Z,1.73
2022-08-11T15:52:51.396Z,3.08
2022-08-11T15:55:23.730Z,3.38
2022-08-11T15:58:13.017Z,2.10
2022-08-11T16:01:04.345Z,3.05
2022-08-11T16:04:07.451Z,3.20
2022-08-11T16:06:51.822Z,2.78
2022-08-11T16:09:25.437Z,5.47
2022-08-11T16:12:02.418Z,1.98
2022-08-11T16:14:53.019Z,3.55
2022-08-11T16:17:25.418Z,2.33
2022-08-11T16:19:56.181Z,1.63
2022-08-11T16:22:35.247Z,2.38
2022-08-11T16:27:02.834Z,2.85
2022-08-11T16:28:02.939Z,2.38
2022-08-11T16:30:35.173Z,3.08
2022-08-11T16:33:48.728Z,2.38
2022-08-11T16:36:12.796Z,3.28
2022-08-11T16:38:44.679Z,2.17
2022-08-11T16:41:17.214Z,2.78
2022-08-11T16:44:06.971Z,2.50
2022-08-11T16:47:05.742Z,2.95
2022-08-11T16:49:36.988Z,1.67
2022-08-11T16:52:11.854Z,3.88
2022-08-11T16:54:44.452Z,21.38
2022-08-11T16:57:34.425Z,14.70
2022-08-11T17:00:09.032Z,3.67
2022-08-11T17:03:00.563Z,3.92
2022-08-11T17:05:54.364Z,3.92
2022-08-11T17:08:57.923Z,3.25
2022-08-11T17:11:49.103Z,1.95
2022-08-11T17:14:35.856Z,3.83
2022-08-11T17:17:08.615Z,9.43
2022-08-11T17:20:42.020Z,5.00
2022-08-11T17:22:49.603Z,6.10
2022-08-11T17:25:19.989Z,5.90
2022-08-11T17:27:52.275Z,5.30
2022-08-11T17:30:21.427Z,5.67
2022-08-11T17:33:10.341Z,5.70
2022-08-11T17:35:44.747Z,5.13
2022-08-11T17:38:18.344Z,4.47
2022-08-11T17:41:04.668Z,5.53
2022-08-11T17:43:52.062Z,4.50
2022-08-11T17:46:38.941Z,4.80
2022-08-11T17:49:12.049Z,5.70
2022-08-11T17:52:01.763Z,6.17
2022-08-11T17:54:50.039Z,7.13
2022-08-11T17:57:38.263Z,5.63
2022-08-11T18:00:08.968Z,7.77
2022-08-11T18:03:03.492Z,7.73
2022-08-11T18:05:36.423Z,8.80
2022-08-11T18:08:28.109Z,9.50
2022-08-11T18:11:24.388Z,7.90
2022-08-11T18:14:25.327Z,10.60
2022-08-11T18:17:11.610Z,10.50
2022-08-11T18:19:57.993Z,10.23
2022-08-11T18:22:50.276Z,9.43
2022-08-11T18:25:43.339Z,15.80
2022-08-11T18:28:35.522Z,15.00
2022-08-11T18:31:23.906Z,11.00
2022-08-11T18:34:11.576Z,11.40
2022-08-11T18:36:59.992Z,10.00
2022-08-11T18:39:54.504Z,12.50
2022-08-11T18:42:43.811Z,12.37
2022-08-11T18:45:33.062Z,12.00
2022-08-11T18:48:39.661Z,12.00
2022-08-11T18:51:30.982Z,12.30
2022-08-11T18:54:27.477Z,12.87
2022-08-11T18:57:20.240Z,12.13
2022-08-11T19:00:07.331Z,11.10
2022-08-11T19:02:56.187Z,11.20
2022-08-11T19:06:33.773Z,12.17
2022-08-11T19:08:54.256Z,11.70
2022-08-11T19:11:42.734Z,0.90
2022-08-11T19:14:34.427Z,3.40
2022-08-11T19:17:44.981Z,2.13
2022-08-11T19:20:32.164Z,2.60
2022-08-11T19:23:21.308Z,1.20
2022-08-11T19:26:08.745Z,1.00
2022-08-11T19:28:57.629Z,0.80
2022-08-11T19:31:48.855Z,1.30
2022-08-11T19:34:37.677Z,1.67
2022-08-11T19:37:26.160Z,1.60
2022-08-11T19:40:13.186Z,0.90
2022-08-11T19:43:02.117Z,0.97
2022-08-11T19:45:52.099Z,1.83
2022-08-11T19:48:43.427Z,2.53
2022-08-11T19:51:30.542Z,0.80
2022-08-11T19:54:17.426Z,0.70
2022-08-11T19:57:04.326Z,1.37
2022-08-11T19:59:51.936Z,0.73
2022-08-11T20:02:38.693Z,0.80
2022-08-11T20:05:27.620Z,1.20
2022-08-11T20:08:18.497Z,0.60
2022-08-11T20:11:06.908Z,2.10
2022-08-11T20:13:54.081Z,0.60
2022-08-11T20:16:42.629Z,1.33
2022-08-11T20:19:56.433Z,0.60
2022-08-11T20:22:37.569Z,0.70
2022-08-11T20:25:25.288Z,0.70
2022-08-11T20:28:13.561Z,0.70
2022-08-11T20:31:02.044Z,1.00
2022-08-11T20:33:49.846Z,0.60
2022-08-11T20:36:36.348Z,1.00
2022-08-11T20:39:25.795Z,0.80
2022-08-11T20:42:13.605Z,1.37
2022-08-11T20:45:00.842Z,0.70
2022-08-11T20:47:59.735Z,0.80
2022-08-11T20:50:47.964Z,0.80
2022-08-11T20:56:44.441Z,0.83
2022-08-11T20:59:33.274Z,2.43
2022-08-11T21:02:27.378Z,0.80
2022-08-11T21:05:15.863Z,1.93
2022-08-11T21:08:13.213Z,0.90
2022-08-11T21:11:01.060Z,0.77
2022-08-11T21:13:56.113Z,0.70
2022-08-11T21:16:47.656Z,2.27
2022-08-11T21:19:59.688Z,1.20
2022-08-11T21:22:59.577Z,0.70
2022-08-11T21:25:55.684Z,2.67
2022-08-11T21:28:47.725Z,0.93
2022-08-11T21:31:35.915Z,1.23
2022-08-11T21:34:23.214Z,3.33
2022-08-11T21:37:11.458Z,1.27
2022-08-11T21:39:59.175Z,1.40
2022-08-11T21:42:46.419Z,4.10
2022-08-11T21:45:34.994Z,1.50
2022-08-11T21:48:23.201Z,1.93
2022-08-11T21:51:09.256Z,1.17
2022-08-11T21:53:55.854Z,3.10
2022-08-11T21:56:43.625Z,1.70
2022-08-11T21:59:31.183Z,1.13
2022-08-11T22:02:19.353Z,4.63
2022-08-11T22:05:06.339Z,2.40
2022-08-11T22:07:52.680Z,2.07
2022-08-11T22:10:41.798Z,1.07
2022-08-11T22:13:30.275Z,1.57
2022-08-11T22:16:17.322Z,1.00
2022-08-11T22:19:06.382Z,4.30
2022-08-11T22:22:02.826Z,4.20
2022-08-11T22:24:52.745Z,4.53
2022-08-11T22:27:39.914Z,1.70
2022-08-11T22:30:28.195Z,1.10
2022-08-11T22:33:17.552Z,1.77
2022-08-11T22:36:14.319Z,1.10
2022-08-11T22:39:02.178Z,1.13
2022-08-11T22:41:48.695Z,1.67
2022-08-11T22:44:35.126Z,10.47
2022-08-11T22:47:23.595Z,3.23
2022-08-11T22:50:16.945Z,0.93
2022-08-11T22:53:07.173Z,2.00
2022-08-11T22:55:53.321Z,0.90
2022-08-11T22:58:40.983Z,2.40
2022-08-11T23:01:27.975Z,2.33
2022-08-11T23:04:15.251Z,1.97
2022-08-11T23:07:04.736Z,1.87
2022-08-11T23:09:52.413Z,1.07
2022-08-11T23:12:39.093Z,1.20
2022-08-11T23:15:25.770Z,2.87
2022-08-11T23:18:12.232Z,1.77
2022-08-11T23:21:00.029Z,1.47
2022-08-11T23:23:48.468Z,1.00
2022-08-11T23:26:38.703Z,1.10
2022-08-11T23:29:26.812Z,1.10
2022-08-11T23:32:13.276Z,1.20
2022-08-11T23:35:40.165Z,1.40
2022-08-11T23:38:09.441Z,1.10
2022-08-11T23:40:57.211Z,1.13
2022-08-11T23:43:45.103Z,1.93
2022-08-11T23:46:31.316Z,1.00
2022-08-11T23:49:22.104Z,1.30
2022-08-11T23:52:11.225Z,0.90
2022-08-11T23:54:58.124Z,1.10
2022-08-11T23:57:48.933Z,0.80
